sensor_id;sensor_type;location;lat;lon;timestamp;P1;durP1;ratioP1;P2;durP2;ratioP2
76059;SDS011;64759;52.220;5.170;2022-11-11T00:00:50;20.23;;;10.25;;
76059;SDS011;64759;52.220;5.170;2022-11-11T00:03:41;28.67;;;12.68;;
76059;SDS011;64759;52.220;5.170;2022-11-11T00:06:25;26.17;;;12.35;;
76059;SDS011;64759;52.220;5.170;2022-11-11T00:09:09;23.15;;;11.45;;
76059;SDS011;64759;52.220;5.170;2022-11-11T00:11:53;28.60;;;13.05;;
76059;SDS011;64759;52.220;5.170;2022-11-11T00:14:37;25.05;;;13.23;;
76059;SDS011;64759;52.220;5.170;2022-11-11T00:17:21;31.80;;;15.43;;
76059;SDS011;64759;52.220;5.170;2022-11-11T00:20:24;23.98;;;13.85;;
76059;SDS011;64759;52.220;5.170;2022-11-11T00:23:27;29.40;;;16.83;;
76059;SDS011;64759;52.220;5.170;2022-11-11T00:26:30;26.55;;;15.52;;
76059;SDS011;64759;52.220;5.170;2022-11-11T00:29:14;31.33;;;15.85;;
76059;SDS011;64759;52.220;5.170;2022-11-11T00:31:58;35.88;;;16.92;;
76059;SDS011;64759;52.220;5.170;2022-11-11T00:35:01;33.53;;;18.10;;
76059;SDS011;64759;52.220;5.170;2022-11-11T00:38:11;27.85;;;16.40;;
76059;SDS011;64759;52.220;5.170;2022-11-11T00:41:29;35.53;;;19.60;;
76059;SDS011;64759;52.220;5.170;2022-11-11T00:44:13;29.00;;;19.00;;
76059;SDS011;64759;52.220;5.170;2022-11-11T00:46:57;34.45;;;18.70;;
76059;SDS011;64759;52.220;5.170;2022-11-11T00:50:00;33.20;;;19.50;;
76059;SDS011;64759;52.220;5.170;2022-11-11T00:53:04;32.20;;;20.85;;
76059;SDS011;64759;52.220;5.170;2022-11-11T00:55:52;31.10;;;19.50;;
76059;SDS011;64759;52.220;5.170;2022-11-11T00:58:37;33.20;;;22.25;;
76059;SDS011;64759;52.220;5.170;2022-11-11T01:01:21;39.35;;;21.35;;
76059;SDS011;64759;52.220;5.170;2022-11-11T01:04:05;38.38;;;21.83;;
76059;SDS011;64759;52.220;5.170;2022-11-11T01:06:49;36.53;;;22.08;;
76059;SDS011;64759;52.220;5.170;2022-11-11T01:09:33;37.63;;;23.02;;
76059;SDS011;64759;52.220;5.170;2022-11-11T01:12:17;35.35;;;21.77;;
76059;SDS011;64759;52.220;5.170;2022-11-11T01:15:01;43.13;;;23.00;;
76059;SDS011;64759;52.220;5.170;2022-11-11T01:17:45;39.65;;;22.83;;
76059;SDS011;64759;52.220;5.170;2022-11-11T01:20:29;42.00;;;24.58;;
76059;SDS011;64759;52.220;5.170;2022-11-11T01:23:13;39.60;;;22.98;;
76059;SDS011;64759;52.220;5.170;2022-11-11T01:26:04;37.97;;;22.80;;
76059;SDS011;64759;52.220;5.170;2022-11-11T01:28:51;35.45;;;22.08;;
76059;SDS011;64759;52.220;5.170;2022-11-11T01:31:37;34.05;;;23.08;;
76059;SDS011;64759;52.220;5.170;2022-11-11T01:34:21;40.58;;;24.45;;
76059;SDS011;64759;52.220;5.170;2022-11-11T01:37:05;39.50;;;25.75;;
76059;SDS011;64759;52.220;5.170;2022-11-11T01:39:49;35.25;;;22.75;;
76059;SDS011;64759;52.220;5.170;2022-11-11T01:42:48;36.92;;;23.40;;
76059;SDS011;64759;52.220;5.170;2022-11-11T01:45:44;41.03;;;25.00;;
76059;SDS011;64759;52.220;5.170;2022-11-11T01:48:30;42.40;;;23.75;;
76059;SDS011;64759;52.220;5.170;2022-11-11T01:51:39;41.97;;;24.08;;
76059;SDS011;64759;52.220;5.170;2022-11-11T01:54:29;43.45;;;24.75;;
76059;SDS011;64759;52.220;5.170;2022-11-11T02:00:23;33.38;;;21.67;;
76059;SDS011;64759;52.220;5.170;2022-11-11T02:03:08;42.47;;;25.38;;
76059;SDS011;64759;52.220;5.170;2022-11-11T02:05:54;40.75;;;23.25;;
76059;SDS011;64759;52.220;5.170;2022-11-11T02:08:40;45.05;;;24.23;;
76059;SDS011;64759;52.220;5.170;2022-11-11T02:11:25;41.95;;;25.38;;
76059;SDS011;64759;52.220;5.170;2022-11-11T02:14:38;44.60;;;26.35;;
76059;SDS011;64759;52.220;5.170;2022-11-11T02:17:27;46.33;;;24.67;;
76059;SDS011;64759;52.220;5.170;2022-11-11T02:20:14;41.33;;;25.92;;
76059;SDS011;64759;52.220;5.170;2022-11-11T02:23:11;42.80;;;26.90;;
76059;SDS011;64759;52.220;5.170;2022-11-11T02:26:02;48.65;;;28.15;;
76059;SDS011;64759;52.220;5.170;2022-11-11T02:28:48;46.08;;;26.52;;
76059;SDS011;64759;52.220;5.170;2022-11-11T02:31:34;50.80;;;28.02;;
76059;SDS011;64759;52.220;5.170;2022-11-11T02:34:18;39.60;;;28.23;;
76059;SDS011;64759;52.220;5.170;2022-11-11T02:37:04;44.22;;;28.02;;
76059;SDS011;64759;52.220;5.170;2022-11-11T02:39:52;45.03;;;26.92;;
76059;SDS011;64759;52.220;5.170;2022-11-11T02:42:40;50.88;;;26.75;;
76059;SDS011;64759;52.220;5.170;2022-11-11T02:45:24;44.33;;;27.80;;
76059;SDS011;64759;52.220;5.170;2022-11-11T02:48:08;47.70;;;27.13;;
76059;SDS011;64759;52.220;5.170;2022-11-11T02:50:53;45.50;;;27.70;;
76059;SDS011;64759;52.220;5.170;2022-11-11T02:53:37;49.30;;;29.58;;
76059;SDS011;64759;52.220;5.170;2022-11-11T02:56:21;45.20;;;27.98;;
76059;SDS011;64759;52.220;5.170;2022-11-11T02:59:24;46.78;;;28.23;;
76059;SDS011;64759;52.220;5.170;2022-11-11T03:02:08;52.95;;;31.13;;
76059;SDS011;64759;52.220;5.170;2022-11-11T03:04:52;42.95;;;27.48;;
76059;SDS011;64759;52.220;5.170;2022-11-11T03:07:37;51.78;;;29.70;;
76059;SDS011;64759;52.220;5.170;2022-11-11T03:10:21;52.35;;;30.10;;
76059;SDS011;64759;52.220;5.170;2022-11-11T03:13:05;41.63;;;27.35;;
76059;SDS011;64759;52.220;5.170;2022-11-11T03:15:49;52.47;;;30.30;;
76059;SDS011;64759;52.220;5.170;2022-11-11T03:18:33;46.63;;;30.00;;
76059;SDS011;64759;52.220;5.170;2022-11-11T03:21:16;50.97;;;29.35;;
76059;SDS011;64759;52.220;5.170;2022-11-11T03:24:00;50.10;;;28.60;;
76059;SDS011;64759;52.220;5.170;2022-11-11T03:26:44;46.58;;;28.50;;
76059;SDS011;64759;52.220;5.170;2022-11-11T03:29:28;46.80;;;28.08;;
76059;SDS011;64759;52.220;5.170;2022-11-11T03:32:12;39.85;;;27.65;;
76059;SDS011;64759;52.220;5.170;2022-11-11T03:34:56;44.08;;;27.85;;
76059;SDS011;64759;52.220;5.170;2022-11-11T03:37:41;50.75;;;29.77;;
76059;SDS011;64759;52.220;5.170;2022-11-11T03:40:46;48.08;;;28.70;;
76059;SDS011;64759;52.220;5.170;2022-11-11T03:43:32;47.35;;;28.67;;
76059;SDS011;64759;52.220;5.170;2022-11-11T03:46:18;51.60;;;29.17;;
76059;SDS011;64759;52.220;5.170;2022-11-11T03:49:02;52.97;;;29.10;;
76059;SDS011;64759;52.220;5.170;2022-11-11T03:51:46;46.40;;;29.02;;
76059;SDS011;64759;52.220;5.170;2022-11-11T03:54:30;41.20;;;29.00;;
76059;SDS011;64759;52.220;5.170;2022-11-11T03:57:14;50.40;;;28.58;;
76059;SDS011;64759;52.220;5.170;2022-11-11T04:00:14;45.75;;;28.38;;
76059;SDS011;64759;52.220;5.170;2022-11-11T04:03:03;45.42;;;30.13;;
76059;SDS011;64759;52.220;5.170;2022-11-11T04:06:16;44.22;;;28.23;;
76059;SDS011;64759;52.220;5.170;2022-11-11T04:09:19;45.13;;;29.58;;
76059;SDS011;64759;52.220;5.170;2022-11-11T04:12:22;49.17;;;28.98;;
76059;SDS011;64759;52.220;5.170;2022-11-11T04:15:07;41.03;;;26.95;;
76059;SDS011;64759;52.220;5.170;2022-11-11T04:18:10;50.90;;;31.08;;
76059;SDS011;64759;52.220;5.170;2022-11-11T04:20:54;47.55;;;29.27;;
76059;SDS011;64759;52.220;5.170;2022-11-11T04:23:57;44.67;;;27.15;;
76059;SDS011;64759;52.220;5.170;2022-11-11T04:26:42;45.40;;;29.73;;
76059;SDS011;64759;52.220;5.170;2022-11-11T04:29:28;49.35;;;30.35;;
76059;SDS011;64759;52.220;5.170;2022-11-11T04:32:14;47.13;;;29.83;;
76059;SDS011;64759;52.220;5.170;2022-11-11T04:35:18;50.20;;;29.85;;
76059;SDS011;64759;52.220;5.170;2022-11-11T04:38:02;42.90;;;28.67;;
76059;SDS011;64759;52.220;5.170;2022-11-11T04:41:04;48.20;;;29.67;;
76059;SDS011;64759;52.220;5.170;2022-11-11T04:43:51;45.35;;;29.27;;
76059;SDS011;64759;52.220;5.170;2022-11-11T04:46:54;48.08;;;30.63;;
76059;SDS011;64759;52.220;5.170;2022-11-11T04:49:38;47.22;;;29.42;;
76059;SDS011;64759;52.220;5.170;2022-11-11T04:52:22;47.05;;;29.52;;
76059;SDS011;64759;52.220;5.170;2022-11-11T04:55:09;54.70;;;31.23;;
76059;SDS011;64759;52.220;5.170;2022-11-11T04:58:12;46.65;;;28.83;;
76059;SDS011;64759;52.220;5.170;2022-11-11T05:00:56;46.35;;;28.85;;
76059;SDS011;64759;52.220;5.170;2022-11-11T05:03:40;46.45;;;28.73;;
76059;SDS011;64759;52.220;5.170;2022-11-11T05:06:26;42.58;;;27.90;;
76059;SDS011;64759;52.220;5.170;2022-11-11T05:09:29;44.00;;;27.52;;
76059;SDS011;64759;52.220;5.170;2022-11-11T05:12:12;41.25;;;27.50;;
76059;SDS011;64759;52.220;5.170;2022-11-11T05:14:56;39.67;;;26.45;;
76059;SDS011;64759;52.220;5.170;2022-11-11T05:17:59;40.30;;;27.27;;
76059;SDS011;64759;52.220;5.170;2022-11-11T05:21:03;44.67;;;26.05;;
76059;SDS011;64759;52.220;5.170;2022-11-11T05:24:05;40.90;;;27.50;;
76059;SDS011;64759;52.220;5.170;2022-11-11T05:27:07;40.83;;;26.17;;
76059;SDS011;64759;52.220;5.170;2022-11-11T05:29:51;47.15;;;27.52;;
76059;SDS011;64759;52.220;5.170;2022-11-11T05:32:35;41.28;;;28.05;;
76059;SDS011;64759;52.220;5.170;2022-11-11T05:35:20;40.78;;;27.92;;
76059;SDS011;64759;52.220;5.170;2022-11-11T05:38:04;40.00;;;26.30;;
76059;SDS011;64759;52.220;5.170;2022-11-11T05:41:03;44.10;;;26.17;;
76059;SDS011;64759;52.220;5.170;2022-11-11T05:43:47;49.40;;;26.60;;
76059;SDS011;64759;52.220;5.170;2022-11-11T05:46:31;36.00;;;24.73;;
76059;SDS011;64759;52.220;5.170;2022-11-11T05:49:15;42.30;;;27.65;;
76059;SDS011;64759;52.220;5.170;2022-11-11T05:51:59;34.00;;;23.20;;
76059;SDS011;64759;52.220;5.170;2022-11-11T05:54:43;33.03;;;24.20;;
76059;SDS011;64759;52.220;5.170;2022-11-11T05:57:28;38.60;;;24.60;;
76059;SDS011;64759;52.220;5.170;2022-11-11T06:00:12;35.60;;;24.08;;
76059;SDS011;64759;52.220;5.170;2022-11-11T06:03:03;32.05;;;23.02;;
76059;SDS011;64759;52.220;5.170;2022-11-11T06:05:48;40.28;;;23.48;;
76059;SDS011;64759;52.220;5.170;2022-11-11T06:08:32;44.05;;;24.20;;
76059;SDS011;64759;52.220;5.170;2022-11-11T06:11:16;34.28;;;23.30;;
76059;SDS011;64759;52.220;5.170;2022-11-11T06:14:00;37.03;;;22.10;;
76059;SDS011;64759;52.220;5.170;2022-11-11T06:16:45;31.85;;;21.58;;
76059;SDS011;64759;52.220;5.170;2022-11-11T06:19:29;36.92;;;22.88;;
76059;SDS011;64759;52.220;5.170;2022-11-11T06:22:13;39.92;;;22.75;;
76059;SDS011;64759;52.220;5.170;2022-11-11T06:24:57;33.25;;;21.25;;
76059;SDS011;64759;52.220;5.170;2022-11-11T06:28:01;35.97;;;22.00;;
76059;SDS011;64759;52.220;5.170;2022-11-11T06:30:45;33.30;;;22.02;;
76059;SDS011;64759;52.220;5.170;2022-11-11T06:33:29;33.95;;;21.98;;
76059;SDS011;64759;52.220;5.170;2022-11-11T06:36:14;36.17;;;22.70;;
76059;SDS011;64759;52.220;5.170;2022-11-11T06:39:00;37.85;;;23.23;;
76059;SDS011;64759;52.220;5.170;2022-11-11T06:41:46;40.35;;;24.08;;
76059;SDS011;64759;52.220;5.170;2022-11-11T06:44:30;39.45;;;23.98;;
76059;SDS011;64759;52.220;5.170;2022-11-11T06:47:14;36.22;;;25.70;;
76059;SDS011;64759;52.220;5.170;2022-11-11T06:49:58;37.70;;;24.58;;
76059;SDS011;64759;52.220;5.170;2022-11-11T06:52:42;39.28;;;25.10;;
76059;SDS011;64759;52.220;5.170;2022-11-11T06:55:27;36.28;;;24.02;;
76059;SDS011;64759;52.220;5.170;2022-11-11T06:58:12;34.55;;;22.85;;
76059;SDS011;64759;52.220;5.170;2022-11-11T07:01:03;42.40;;;26.80;;
76059;SDS011;64759;52.220;5.170;2022-11-11T07:03:51;44.30;;;26.85;;
76059;SDS011;64759;52.220;5.170;2022-11-11T07:06:35;38.35;;;27.13;;
76059;SDS011;64759;52.220;5.170;2022-11-11T07:09:19;41.22;;;26.27;;
76059;SDS011;64759;52.220;5.170;2022-11-11T07:12:03;43.70;;;26.20;;
76059;SDS011;64759;52.220;5.170;2022-11-11T07:14:49;38.72;;;25.05;;
76059;SDS011;64759;52.220;5.170;2022-11-11T07:17:33;41.88;;;26.20;;
76059;SDS011;64759;52.220;5.170;2022-11-11T07:20:18;43.95;;;27.88;;
76059;SDS011;64759;52.220;5.170;2022-11-11T07:23:02;41.63;;;25.75;;
76059;SDS011;64759;52.220;5.170;2022-11-11T07:25:47;44.67;;;26.75;;
76059;SDS011;64759;52.220;5.170;2022-11-11T07:28:31;42.90;;;27.42;;
76059;SDS011;64759;52.220;5.170;2022-11-11T07:31:15;41.28;;;26.02;;
76059;SDS011;64759;52.220;5.170;2022-11-11T07:33:59;42.80;;;25.88;;
76059;SDS011;64759;52.220;5.170;2022-11-11T07:36:43;41.90;;;27.13;;
76059;SDS011;64759;52.220;5.170;2022-11-11T07:39:27;38.83;;;25.33;;
76059;SDS011;64759;52.220;5.170;2022-11-11T07:42:12;39.25;;;26.65;;
76059;SDS011;64759;52.220;5.170;2022-11-11T07:44:56;34.22;;;25.23;;
76059;SDS011;64759;52.220;5.170;2022-11-11T07:47:41;41.05;;;25.70;;
76059;SDS011;64759;52.220;5.170;2022-11-11T07:50:26;43.97;;;26.27;;
76059;SDS011;64759;52.220;5.170;2022-11-11T07:53:11;37.13;;;26.00;;
76059;SDS011;64759;52.220;5.170;2022-11-11T07:55:57;35.33;;;24.95;;
76059;SDS011;64759;52.220;5.170;2022-11-11T07:58:41;34.78;;;23.85;;
76059;SDS011;64759;52.220;5.170;2022-11-11T08:01:24;35.13;;;22.60;;
76059;SDS011;64759;52.220;5.170;2022-11-11T08:04:08;33.35;;;21.92;;
76059;SDS011;64759;52.220;5.170;2022-11-11T08:06:52;33.08;;;22.15;;
76059;SDS011;64759;52.220;5.170;2022-11-11T08:09:36;34.53;;;20.60;;
76059;SDS011;64759;52.220;5.170;2022-11-11T08:12:20;25.95;;;18.77;;
76059;SDS011;64759;52.220;5.170;2022-11-11T08:15:23;31.13;;;21.60;;
76059;SDS011;64759;52.220;5.170;2022-11-11T08:18:08;35.67;;;20.85;;
76059;SDS011;64759;52.220;5.170;2022-11-11T08:20:52;32.88;;;20.92;;
76059;SDS011;64759;52.220;5.170;2022-11-11T08:23:36;28.55;;;18.92;;
76059;SDS011;64759;52.220;5.170;2022-11-11T08:26:21;37.03;;;20.67;;
76059;SDS011;64759;52.220;5.170;2022-11-11T08:29:06;30.13;;;20.25;;
76059;SDS011;64759;52.220;5.170;2022-11-11T08:31:51;30.27;;;19.67;;
76059;SDS011;64759;52.220;5.170;2022-11-11T08:34:35;30.90;;;18.80;;
76059;SDS011;64759;52.220;5.170;2022-11-11T08:37:19;26.27;;;19.65;;
76059;SDS011;64759;52.220;5.170;2022-11-11T08:40:04;33.65;;;19.67;;
76059;SDS011;64759;52.220;5.170;2022-11-11T08:42:48;28.38;;;19.75;;
76059;SDS011;64759;52.220;5.170;2022-11-11T08:45:32;27.02;;;18.38;;
76059;SDS011;64759;52.220;5.170;2022-11-11T08:48:17;34.75;;;19.95;;
76059;SDS011;64759;52.220;5.170;2022-11-11T08:51:00;26.08;;;18.60;;
76059;SDS011;64759;52.220;5.170;2022-11-11T08:53:44;26.77;;;19.77;;
76059;SDS011;64759;52.220;5.170;2022-11-11T08:56:28;29.67;;;18.88;;
76059;SDS011;64759;52.220;5.170;2022-11-11T08:59:12;28.05;;;19.45;;
76059;SDS011;64759;52.220;5.170;2022-11-11T09:01:56;30.08;;;18.95;;
76059;SDS011;64759;52.220;5.170;2022-11-11T09:04:40;32.25;;;19.83;;
76059;SDS011;64759;52.220;5.170;2022-11-11T09:07:24;38.85;;;22.20;;
76059;SDS011;64759;52.220;5.170;2022-11-11T09:10:09;29.85;;;21.17;;
76059;SDS011;64759;52.220;5.170;2022-11-11T09:12:56;29.30;;;21.13;;
76059;SDS011;64759;52.220;5.170;2022-11-11T09:15:41;32.47;;;21.52;;
76059;SDS011;64759;52.220;5.170;2022-11-11T09:18:25;37.15;;;23.55;;
76059;SDS011;64759;52.220;5.170;2022-11-11T09:21:10;34.78;;;20.85;;
76059;SDS011;64759;52.220;5.170;2022-11-11T09:23:54;28.92;;;20.27;;
76059;SDS011;64759;52.220;5.170;2022-11-11T09:26:38;34.85;;;21.33;;
76059;SDS011;64759;52.220;5.170;2022-11-11T09:29:22;28.52;;;19.63;;
76059;SDS011;64759;52.220;5.170;2022-11-11T09:32:06;33.17;;;20.10;;
76059;SDS011;64759;52.220;5.170;2022-11-11T09:34:50;37.85;;;22.27;;
76059;SDS011;64759;52.220;5.170;2022-11-11T09:37:34;34.28;;;22.58;;
76059;SDS011;64759;52.220;5.170;2022-11-11T09:40:19;33.70;;;22.52;;
76059;SDS011;64759;52.220;5.170;2022-11-11T09:52:18;34.55;;;21.33;;
76059;SDS011;64759;52.220;5.170;2022-11-11T09:58:21;39.80;;;24.52;;
76059;SDS011;64759;52.220;5.170;2022-11-11T10:01:13;32.25;;;22.25;;
76059;SDS011;64759;52.220;5.170;2022-11-11T10:06:58;32.53;;;21.08;;
76059;SDS011;64759;52.220;5.170;2022-11-11T10:09:49;31.33;;;22.85;;
76059;SDS011;64759;52.220;5.170;2022-11-11T10:12:41;35.13;;;22.20;;
76059;SDS011;64759;52.220;5.170;2022-11-11T10:15:34;40.97;;;22.73;;
76059;SDS011;64759;52.220;5.170;2022-11-11T10:21:35;33.33;;;22.25;;
76059;SDS011;64759;52.220;5.170;2022-11-11T10:24:41;26.92;;;21.10;;
76059;SDS011;64759;52.220;5.170;2022-11-11T10:27:32;35.28;;;22.98;;
76059;SDS011;64759;52.220;5.170;2022-11-11T10:30:18;29.92;;;21.27;;
76059;SDS011;64759;52.220;5.170;2022-11-11T10:33:08;35.65;;;21.73;;
76059;SDS011;64759;52.220;5.170;2022-11-11T10:36:02;30.20;;;20.55;;
76059;SDS011;64759;52.220;5.170;2022-11-11T10:44:32;32.72;;;21.20;;
76059;SDS011;64759;52.220;5.170;2022-11-11T10:53:13;35.55;;;22.27;;
76059;SDS011;64759;52.220;5.170;2022-11-11T10:58:58;32.67;;;22.50;;
76059;SDS011;64759;52.220;5.170;2022-11-11T11:02:17;28.85;;;20.23;;
76059;SDS011;64759;52.220;5.170;2022-11-11T11:08:16;29.60;;;21.95;;
76059;SDS011;64759;52.220;5.170;2022-11-11T11:11:12;30.10;;;19.40;;
76059;SDS011;64759;52.220;5.170;2022-11-11T11:14:04;29.17;;;20.20;;
76059;SDS011;64759;52.220;5.170;2022-11-11T11:17:06;27.70;;;21.05;;
76059;SDS011;64759;52.220;5.170;2022-11-11T11:20:07;35.97;;;21.20;;
76059;SDS011;64759;52.220;5.170;2022-11-11T11:22:52;31.83;;;21.20;;
76059;SDS011;64759;52.220;5.170;2022-11-11T11:25:42;33.25;;;21.80;;
76059;SDS011;64759;52.220;5.170;2022-11-11T11:31:40;26.65;;;20.17;;
76059;SDS011;64759;52.220;5.170;2022-11-11T11:34:40;31.90;;;21.45;;
76059;SDS011;64759;52.220;5.170;2022-11-11T11:37:56;32.42;;;22.13;;
76059;SDS011;64759;52.220;5.170;2022-11-11T11:40:52;31.73;;;22.33;;
76059;SDS011;64759;52.220;5.170;2022-11-11T11:43:40;31.75;;;22.70;;
76059;SDS011;64759;52.220;5.170;2022-11-11T11:49:20;33.08;;;23.23;;
76059;SDS011;64759;52.220;5.170;2022-11-11T11:52:11;39.30;;;25.50;;
76059;SDS011;64759;52.220;5.170;2022-11-11T11:55:34;32.45;;;23.75;;
76059;SDS011;64759;52.220;5.170;2022-11-11T12:04:07;32.22;;;23.67;;
76059;SDS011;64759;52.220;5.170;2022-11-11T12:26:00;29.27;;;20.08;;
76059;SDS011;64759;52.220;5.170;2022-11-11T12:39:08;33.40;;;17.90;;
76059;SDS011;64759;52.220;5.170;2022-11-11T12:45:17;23.77;;;15.38;;
76059;SDS011;64759;52.220;5.170;2022-11-11T12:51:07;27.55;;;15.00;;
76059;SDS011;64759;52.220;5.170;2022-11-11T12:54:03;20.38;;;15.60;;
76059;SDS011;64759;52.220;5.170;2022-11-11T13:05:55;21.88;;;14.35;;
76059;SDS011;64759;52.220;5.170;2022-11-11T13:09:49;21.27;;;13.82;;
76059;SDS011;64759;52.220;5.170;2022-11-11T13:12:44;23.33;;;13.63;;
76059;SDS011;64759;52.220;5.170;2022-11-11T13:15:49;17.45;;;12.93;;
76059;SDS011;64759;52.220;5.170;2022-11-11T13:18:54;21.42;;;12.63;;
76059;SDS011;64759;52.220;5.170;2022-11-11T13:25:03;20.05;;;11.32;;
76059;SDS011;64759;52.220;5.170;2022-11-11T13:27:52;18.27;;;13.27;;
76059;SDS011;64759;52.220;5.170;2022-11-11T13:30:58;16.67;;;11.00;;
76059;SDS011;64759;52.220;5.170;2022-11-11T13:33:53;20.17;;;11.15;;
76059;SDS011;64759;52.220;5.170;2022-11-11T13:36:42;14.88;;;10.52;;
76059;SDS011;64759;52.220;5.170;2022-11-11T13:40:31;17.83;;;9.77;;
76059;SDS011;64759;52.220;5.170;2022-11-11T13:43:13;16.95;;;10.77;;
76059;SDS011;64759;52.220;5.170;2022-11-11T13:46:01;16.17;;;9.50;;
76059;SDS011;64759;52.220;5.170;2022-11-11T13:48:48;16.75;;;9.93;;
76059;SDS011;64759;52.220;5.170;2022-11-11T13:54:26;21.08;;;9.68;;
76059;SDS011;64759;52.220;5.170;2022-11-11T13:57:18;18.70;;;10.13;;
76059;SDS011;64759;52.220;5.170;2022-11-11T14:00:06;15.82;;;9.15;;
76059;SDS011;64759;52.220;5.170;2022-11-11T14:08:58;16.23;;;9.73;;
76059;SDS011;64759;52.220;5.170;2022-11-11T14:11:43;15.57;;;9.80;;
76059;SDS011;64759;52.220;5.170;2022-11-11T14:17:18;16.70;;;9.55;;
76059;SDS011;64759;52.220;5.170;2022-11-11T14:26:21;19.52;;;9.02;;
76059;SDS011;64759;52.220;5.170;2022-11-11T14:29:15;23.92;;;8.75;;
76059;SDS011;64759;52.220;5.170;2022-11-11T15:01:34;17.42;;;10.18;;
76059;SDS011;64759;52.220;5.170;2022-11-11T15:04:18;21.30;;;11.02;;
76059;SDS011;64759;52.220;5.170;2022-11-11T15:07:03;17.65;;;9.90;;
76059;SDS011;64759;52.220;5.170;2022-11-11T15:13:10;27.88;;;14.40;;
76059;SDS011;64759;52.220;5.170;2022-11-11T15:16:29;24.75;;;11.10;;
76059;SDS011;64759;52.220;5.170;2022-11-11T15:22:16;18.40;;;9.85;;
76059;SDS011;64759;52.220;5.170;2022-11-11T15:31:27;18.75;;;10.65;;
76059;SDS011;64759;52.220;5.170;2022-11-11T15:39:58;19.23;;;12.07;;
76059;SDS011;64759;52.220;5.170;2022-11-11T15:42:42;18.00;;;10.02;;
76059;SDS011;64759;52.220;5.170;2022-11-11T15:45:33;17.95;;;11.13;;
76059;SDS011;64759;52.220;5.170;2022-11-11T15:51:17;22.70;;;11.75;;
76059;SDS011;64759;52.220;5.170;2022-11-11T15:54:07;22.30;;;11.23;;
76059;SDS011;64759;52.220;5.170;2022-11-11T15:57:14;21.13;;;11.30;;
76059;SDS011;64759;52.220;5.170;2022-11-11T16:03:14;21.52;;;12.05;;
76059;SDS011;64759;52.220;5.170;2022-11-11T16:06:01;19.40;;;11.10;;
76059;SDS011;64759;52.220;5.170;2022-11-11T16:08:49;23.65;;;12.40;;
76059;SDS011;64759;52.220;5.170;2022-11-11T16:11:39;26.42;;;13.48;;
76059;SDS011;64759;52.220;5.170;2022-11-11T16:14:27;25.83;;;13.07;;
76059;SDS011;64759;52.220;5.170;2022-11-11T16:17:19;26.77;;;14.20;;
76059;SDS011;64759;52.220;5.170;2022-11-11T16:20:05;18.45;;;12.18;;
76059;SDS011;64759;52.220;5.170;2022-11-11T16:25:42;27.08;;;15.63;;
76059;SDS011;64759;52.220;5.170;2022-11-11T16:28:27;29.25;;;15.18;;
76059;SDS011;64759;52.220;5.170;2022-11-11T16:31:20;25.42;;;14.48;;
76059;SDS011;64759;52.220;5.170;2022-11-11T16:37:10;25.60;;;14.30;;
76059;SDS011;64759;52.220;5.170;2022-11-11T16:39:56;22.65;;;13.02;;
76059;SDS011;64759;52.220;5.170;2022-11-11T16:43:21;22.45;;;12.75;;
76059;SDS011;64759;52.220;5.170;2022-11-11T16:46:07;25.88;;;13.30;;
76059;SDS011;64759;52.220;5.170;2022-11-11T16:48:55;18.50;;;11.68;;
76059;SDS011;64759;52.220;5.170;2022-11-11T16:51:45;18.45;;;12.55;;
76059;SDS011;64759;52.220;5.170;2022-11-11T16:54:30;22.38;;;11.85;;
76059;SDS011;64759;52.220;5.170;2022-11-11T16:57:22;20.88;;;12.18;;
76059;SDS011;64759;52.220;5.170;2022-11-11T17:03:09;21.90;;;12.43;;
76059;SDS011;64759;52.220;5.170;2022-11-11T17:05:59;16.02;;;11.30;;
76059;SDS011;64759;52.220;5.170;2022-11-11T17:08:47;17.08;;;10.88;;
76059;SDS011;64759;52.220;5.170;2022-11-11T17:17:06;36.25;;;20.33;;
76059;SDS011;64759;52.220;5.170;2022-11-11T17:19:52;30.88;;;19.02;;
76059;SDS011;64759;52.220;5.170;2022-11-11T17:22:55;19.88;;;13.23;;
76059;SDS011;64759;52.220;5.170;2022-11-11T17:25:40;22.38;;;13.32;;
76059;SDS011;64759;52.220;5.170;2022-11-11T17:28:25;22.40;;;11.10;;
76059;SDS011;64759;52.220;5.170;2022-11-11T17:31:10;19.23;;;10.68;;
76059;SDS011;64759;52.220;5.170;2022-11-11T17:33:55;20.13;;;11.18;;
76059;SDS011;64759;52.220;5.170;2022-11-11T17:36:39;15.52;;;10.10;;
76059;SDS011;64759;52.220;5.170;2022-11-11T17:39:23;16.33;;;9.27;;
76059;SDS011;64759;52.220;5.170;2022-11-11T17:42:06;16.90;;;9.13;;
76059;SDS011;64759;52.220;5.170;2022-11-11T17:44:51;15.00;;;9.40;;
76059;SDS011;64759;52.220;5.170;2022-11-11T17:47:35;18.15;;;9.70;;
76059;SDS011;64759;52.220;5.170;2022-11-11T17:50:18;16.98;;;9.73;;
76059;SDS011;64759;52.220;5.170;2022-11-11T17:53:03;17.58;;;9.95;;
76059;SDS011;64759;52.220;5.170;2022-11-11T17:55:48;18.52;;;10.25;;
76059;SDS011;64759;52.220;5.170;2022-11-11T17:58:36;21.48;;;10.80;;
76059;SDS011;64759;52.220;5.170;2022-11-11T18:01:20;18.08;;;10.82;;
76059;SDS011;64759;52.220;5.170;2022-11-11T18:04:04;18.58;;;11.02;;
76059;SDS011;64759;52.220;5.170;2022-11-11T18:06:48;15.90;;;11.20;;
76059;SDS011;64759;52.220;5.170;2022-11-11T18:09:32;23.02;;;13.27;;
76059;SDS011;64759;52.220;5.170;2022-11-11T18:12:16;20.92;;;11.98;;
76059;SDS011;64759;52.220;5.170;2022-11-11T18:15:00;14.63;;;10.68;;
76059;SDS011;64759;52.220;5.170;2022-11-11T18:17:44;25.73;;;11.75;;
76059;SDS011;64759;52.220;5.170;2022-11-11T18:20:29;17.70;;;11.77;;
76059;SDS011;64759;52.220;5.170;2022-11-11T18:23:13;16.52;;;10.65;;
76059;SDS011;64759;52.220;5.170;2022-11-11T18:25:57;14.73;;;10.45;;
76059;SDS011;64759;52.220;5.170;2022-11-11T18:28:41;18.45;;;10.45;;
76059;SDS011;64759;52.220;5.170;2022-11-11T18:31:25;20.67;;;11.57;;
76059;SDS011;64759;52.220;5.170;2022-11-11T18:34:09;20.48;;;10.70;;
76059;SDS011;64759;52.220;5.170;2022-11-11T18:36:53;19.33;;;12.05;;
76059;SDS011;64759;52.220;5.170;2022-11-11T18:39:37;20.00;;;12.27;;
76059;SDS011;64759;52.220;5.170;2022-11-11T18:42:21;18.30;;;11.43;;
76059;SDS011;64759;52.220;5.170;2022-11-11T18:45:05;19.58;;;14.57;;
76059;SDS011;64759;52.220;5.170;2022-11-11T18:47:49;25.02;;;16.00;;
76059;SDS011;64759;52.220;5.170;2022-11-11T18:50:33;25.55;;;16.27;;
76059;SDS011;64759;52.220;5.170;2022-11-11T18:53:17;20.55;;;12.70;;
76059;SDS011;64759;52.220;5.170;2022-11-11T18:56:05;25.25;;;13.38;;
76059;SDS011;64759;52.220;5.170;2022-11-11T18:58:52;25.08;;;15.57;;
76059;SDS011;64759;52.220;5.170;2022-11-11T19:01:42;19.90;;;11.82;;
76059;SDS011;64759;52.220;5.170;2022-11-11T19:04:26;18.13;;;11.07;;
76059;SDS011;64759;52.220;5.170;2022-11-11T19:07:10;22.05;;;11.40;;
76059;SDS011;64759;52.220;5.170;2022-11-11T19:09:54;20.75;;;10.23;;
76059;SDS011;64759;52.220;5.170;2022-11-11T19:12:38;18.85;;;10.80;;
76059;SDS011;64759;52.220;5.170;2022-11-11T19:15:22;17.05;;;10.93;;
76059;SDS011;64759;52.220;5.170;2022-11-11T19:18:06;22.38;;;13.10;;
76059;SDS011;64759;52.220;5.170;2022-11-11T19:20:50;23.02;;;11.70;;
76059;SDS011;64759;52.220;5.170;2022-11-11T19:23:34;19.48;;;10.48;;
76059;SDS011;64759;52.220;5.170;2022-11-11T19:26:18;22.17;;;12.90;;
76059;SDS011;64759;52.220;5.170;2022-11-11T19:29:03;22.15;;;12.57;;
76059;SDS011;64759;52.220;5.170;2022-11-11T19:31:52;20.80;;;13.15;;